WAOO/BDJ METAR and TAF weather

Enter ICAO airport designator
Station Type Date Time Source
WAOO METAR 2022/06/30 01:30 UTC NOAA

WAOO 300130Z 33006KT 9999 SCT016 25/23 Q1010 NOSIG


Station Type Date Time Source
WAOO Decoded METAR 2022/06/30 01:30 UTC NOAA

Station name not available
Jun 29, 2022 - 09:30 PM EDT / 2022.06.30 0130 UTC
Wind: from the NNW (330 degrees) at 7 MPH (6 KT):0
Visibility: greater than 7 mile(s):0
Sky conditions: partly cloudy
Temperature: 77 F (25 C)
Dew Point: 73 F (23 C)
Relative Humidity: 88%
Pressure (altimeter): 29.83 in. Hg (1010 hPa)
ob: WAOO 300130Z 33006KT 9999 SCT016 25/23 Q1010 NOSIG
cycle: 1

Station Type Date Time Source
WAOO TAF 2022/06/29 18:00 UTC NOAA

TAF WAOO 291700Z 2918/3018 18006KT 9999 SCT018 PROB30
TEMPO 3006/3010 6000 TSRA FEW017CB

Example: see airport list